createdAt,value
2022-12-08T00:00:51.327Z,100118.00
2022-12-08T00:03:21.039Z,100128.53
2022-12-08T00:06:04.386Z,100110.81
2022-12-08T00:08:46.446Z,100112.28
2022-12-08T00:11:16.478Z,100111.97
2022-12-08T00:13:45.969Z,100106.25
2022-12-08T00:16:18.052Z,100114.88
2022-12-08T00:18:47.807Z,100106.25
2022-12-08T00:21:17.362Z,100101.97
2022-12-08T00:23:47.112Z,100098.41
2022-12-08T00:26:16.615Z,100103.13
2022-12-08T00:28:46.174Z,100100.44
2022-12-08T00:31:18.322Z,100098.63
2022-12-08T00:33:48.004Z,100091.06
2022-12-08T00:36:18.218Z,100099.59
2022-12-08T00:38:48.455Z,100093.66
2022-12-08T00:41:40.013Z,100092.19
2022-12-08T00:44:09.909Z,100086.53
2022-12-08T00:46:42.369Z,100085.72
2022-12-08T00:49:12.501Z,100090.06
2022-12-08T00:51:42.105Z,100088.41
2022-12-08T00:54:11.887Z,100080.56
2022-12-08T00:56:41.530Z,100074.72
2022-12-08T00:59:11.275Z,100079.91
2022-12-08T01:01:43.929Z,100079.31
2022-12-08T01:04:15.563Z,100079.38
2022-12-08T01:06:46.115Z,100073.25
2022-12-08T01:09:17.885Z,100077.09
2022-12-08T01:11:47.916Z,100067.91
2022-12-08T01:14:17.822Z,100069.91
2022-12-08T01:16:50.185Z,100077.94
2022-12-08T01:19:20.562Z,100073.19
2022-12-08T01:21:50.395Z,100071.19
2022-12-08T01:24:22.198Z,100068.53
2022-12-08T01:26:52.855Z,100064.34
2022-12-08T01:29:22.492Z,100065.19
2022-12-08T01:31:54.567Z,100061.25
2022-12-08T01:34:24.113Z,100063.28
2022-12-08T01:36:53.761Z,100059.31
2022-12-08T01:39:23.331Z,100069.75
2022-12-08T01:41:52.886Z,100067.16
2022-12-08T01:44:52.539Z,100058.41
2022-12-08T01:47:26.840Z,100059.38
2022-12-08T01:49:56.513Z,100055.19
2022-12-08T01:52:29.498Z,100063.63
2022-12-08T01:55:03.324Z,100064.34
2022-12-08T01:57:37.634Z,100056.47
2022-12-08T02:00:10.534Z,100062.69
2022-12-08T02:02:52.748Z,100056.53
2022-12-08T02:05:25.050Z,100054.84
2022-12-08T02:07:55.197Z,100052.31
2022-12-08T02:10:26.703Z,100041.28
2022-12-08T02:12:59.235Z,100038.59
2022-12-08T02:15:36.711Z,100041.78
2022-12-08T02:18:23.290Z,100034.63
2022-12-08T02:20:59.529Z,100026.91
2022-12-08T02:23:39.340Z,100024.25
2022-12-08T02:26:41.567Z,100022.44
2022-12-08T02:29:38.357Z,100017.03
2022-12-08T02:32:26.549Z,100017.63
2022-12-08T02:35:02.326Z,100011.53
2022-12-08T02:37:37.238Z,100018.56
2022-12-08T02:40:16.636Z,100012.44
2022-12-08T02:42:49.715Z,100014.28
2022-12-08T02:45:25.305Z,100014.66
2022-12-08T02:47:55.409Z,100004.28
2022-12-08T02:50:27.555Z,100005.81
2022-12-08T02:52:57.778Z,100004.38
2022-12-08T02:55:30.338Z,100014.59
2022-12-08T02:58:14.227Z,100015.38
2022-12-08T03:01:00.008Z,100010.84
2022-12-08T03:03:38.044Z,100018.41
2022-12-08T03:06:19.663Z,100005.22
2022-12-08T03:08:54.427Z,100011.25
2022-12-08T03:11:27.482Z,100007.75
2022-12-08T03:14:02.085Z,100001.41
2022-12-08T03:16:33.577Z,99998.75
2022-12-08T03:19:06.327Z,99994.22
2022-12-08T03:21:38.680Z,99986.91
2022-12-08T03:24:12.656Z,99977.75
2022-12-08T03:26:48.539Z,99982.47
2022-12-08T03:29:18.234Z,99976.97
2022-12-08T03:31:55.542Z,99974.16
2022-12-08T03:34:28.285Z,99969.13
2022-12-08T03:37:02.862Z,99969.28
2022-12-08T03:39:32.369Z,99967.97
2022-12-08T03:42:01.946Z,99967.91
2022-12-08T03:44:31.726Z,99960.22
2022-12-08T03:47:01.308Z,99968.06
2022-12-08T03:49:30.860Z,99955.31
2022-12-08T03:52:03.057Z,99954.34
2022-12-08T03:54:32.591Z,99958.69
2022-12-08T03:57:02.173Z,99952.34
2022-12-08T03:59:31.697Z,99951.72
2022-12-08T04:02:01.292Z,99948.63
2022-12-08T04:04:31.197Z,99948.22
2022-12-08T04:07:03.362Z,99949.22
2022-12-08T04:09:33.067Z,99943.59
2022-12-08T04:12:02.612Z,99940.91
2022-12-08T04:14:32.243Z,99937.53
2022-12-08T04:17:01.820Z,99948.38
2022-12-08T04:19:31.580Z,99928.53
2022-12-08T04:22:03.689Z,99930.06
2022-12-08T04:24:33.166Z,99931.22
2022-12-08T04:27:02.701Z,99932.81
2022-12-08T04:29:32.230Z,99927.34
2022-12-08T04:32:01.701Z,99927.13
2022-12-08T04:34:31.183Z,99930.47
2022-12-08T04:37:03.242Z,99928.19
2022-12-08T04:39:32.718Z,99927.34
2022-12-08T04:42:02.322Z,99922.75
2022-12-08T04:44:31.783Z,99921.44
2022-12-08T04:47:01.367Z,99916.72
2022-12-08T04:49:30.959Z,99919.91
2022-12-08T04:52:03.062Z,99921.44
2022-12-08T04:54:32.679Z,99924.50
2022-12-08T04:57:02.189Z,99917.91
2022-12-08T04:59:31.709Z,99915.94
2022-12-08T05:02:01.373Z,99908.38
2022-12-08T05:04:30.993Z,99908.91
2022-12-08T05:07:03.045Z,99907.53
2022-12-08T05:09:32.703Z,99903.56
2022-12-08T05:12:02.221Z,99906.34
2022-12-08T05:14:31.733Z,99898.50
2022-12-08T05:17:06.249Z,99893.47
2022-12-08T05:19:38.750Z,99903.34
2022-12-08T05:22:10.789Z,99902.72
2022-12-08T05:24:47.009Z,99894.91
2022-12-08T05:27:17.063Z,99903.03
2022-12-08T05:29:48.150Z,99894.50
2022-12-08T05:32:17.664Z,99894.19
2022-12-08T05:34:47.318Z,99889.03
2022-12-08T05:37:19.453Z,99887.34
2022-12-08T05:39:49.029Z,99879.84
2022-12-08T05:42:24.382Z,99880.84
2022-12-08T05:44:54.393Z,99882.59
2022-12-08T05:47:23.896Z,99883.81
2022-12-08T05:49:53.402Z,99878.78
2022-12-08T05:52:25.507Z,99882.00
2022-12-08T05:54:55.006Z,99885.88
2022-12-08T05:57:24.581Z,99881.25
2022-12-08T05:59:54.145Z,99877.59
2022-12-08T06:02:23.785Z,99877.41
2022-12-08T06:04:53.362Z,99878.38
2022-12-08T06:07:25.529Z,99872.28
2022-12-08T06:09:55.107Z,99874.59
2022-12-08T06:12:24.627Z,99872.28
2022-12-08T06:14:54.331Z,99877.28
2022-12-08T06:17:23.936Z,99872.31
2022-12-08T06:19:53.426Z,99874.94
2022-12-08T06:22:25.497Z,99874.75
2022-12-08T06:24:55.054Z,99880.28
2022-12-08T06:27:24.589Z,99879.28
2022-12-08T06:29:54.187Z,99871.44
2022-12-08T06:32:27.397Z,99873.78
2022-12-08T06:34:57.632Z,99867.16
2022-12-08T06:37:30.010Z,99865.56
2022-12-08T06:39:59.655Z,99869.91
2022-12-08T06:42:41.674Z,99865.72
2022-12-08T06:45:13.066Z,99874.16
2022-12-08T06:47:42.651Z,99878.16
2022-12-08T06:50:15.867Z,99875.81
2022-12-08T06:53:00.775Z,99890.59
2022-12-08T06:58:24.116Z,99880.75
2022-12-08T07:00:53.879Z,99888.75
2022-12-08T07:03:23.696Z,99892.25
2022-12-08T07:05:53.409Z,99886.91
2022-12-08T07:08:25.893Z,99887.66
2022-12-08T07:10:55.579Z,99890.84
2022-12-08T07:13:25.201Z,99894.97
2022-12-08T07:15:55.082Z,99891.13
2022-12-08T07:18:24.700Z,99896.75
2022-12-08T07:20:54.241Z,99896.34
2022-12-08T07:23:26.368Z,99897.16
2022-12-08T07:25:55.969Z,99896.16
2022-12-08T07:28:25.624Z,99900.41
2022-12-08T07:30:55.196Z,99897.06
2022-12-08T07:33:24.814Z,99891.97
2022-12-08T07:35:58.395Z,99896.50
2022-12-08T07:38:31.643Z,99896.97
2022-12-08T07:41:02.587Z,99897.66
2022-12-08T07:43:32.172Z,99907.03
2022-12-08T07:46:01.843Z,99898.06
2022-12-08T07:48:31.355Z,99898.53
2022-12-08T07:51:03.627Z,99898.22
2022-12-08T07:53:36.002Z,99895.59
2022-12-08T07:56:08.776Z,99898.09
2022-12-08T07:58:38.139Z,99895.91
2022-12-08T08:01:08.302Z,99897.13
2022-12-08T08:03:38.069Z,99897.13
2022-12-08T08:06:08.506Z,99897.38
2022-12-08T08:08:40.600Z,99906.47
2022-12-08T08:11:18.938Z,99907.09
2022-12-08T08:13:50.734Z,99901.31
2022-12-08T08:16:21.611Z,99907.34
2022-12-08T08:18:51.872Z,99908.16
2022-12-08T08:24:15.682Z,99903.56
2022-12-08T08:26:45.250Z,99908.59
2022-12-08T08:29:14.856Z,99907.97
2022-12-08T08:31:44.429Z,99910.22
2022-12-08T08:34:14.147Z,99908.56
2022-12-08T08:36:43.935Z,99913.81
2022-12-08T08:39:16.236Z,99911.34
2022-12-08T08:41:46.086Z,99916.25
2022-12-08T08:44:16.173Z,99910.34
2022-12-08T08:46:45.776Z,99921.09
2022-12-08T08:49:15.387Z,99914.47
2022-12-08T08:51:45.199Z,99914.03
2022-12-08T08:54:17.386Z,99920.47
2022-12-08T08:56:48.270Z,99918.81
2022-12-08T08:59:17.954Z,99923.63
2022-12-08T09:01:47.600Z,99921.75
2022-12-08T09:04:17.423Z,99920.84
2022-12-08T09:06:48.136Z,99920.50
2022-12-08T09:09:20.829Z,99930.00
2022-12-08T09:11:50.149Z,99925.41
2022-12-08T09:14:19.651Z,99924.97
2022-12-08T09:16:49.226Z,99931.03
2022-12-08T09:19:18.774Z,99931.50
2022-12-08T09:21:48.507Z,99925.31
2022-12-08T09:24:20.622Z,99931.28
2022-12-08T09:26:50.176Z,99935.34
2022-12-08T09:29:19.992Z,99933.25
2022-12-08T09:31:49.728Z,99932.03
2022-12-08T09:34:19.713Z,99938.78
2022-12-08T09:36:49.773Z,99937.28
2022-12-08T09:39:22.682Z,99924.94
2022-12-08T09:42:01.483Z,99938.66
2022-12-08T09:44:44.833Z,99928.66
2022-12-08T09:47:23.996Z,99926.19
2022-12-08T09:50:04.508Z,99926.19
2022-12-08T09:52:39.201Z,99921.63
2022-12-08T09:55:18.300Z,99913.47
2022-12-08T09:57:53.076Z,99910.47
2022-12-08T10:00:25.997Z,99913.03
2022-12-08T10:02:55.546Z,99910.34
2022-12-08T10:05:26.996Z,99915.56
2022-12-08T10:08:06.554Z,99912.50
2022-12-08T10:10:44.550Z,99910.56
2022-12-08T10:13:22.227Z,99913.69
2022-12-08T10:16:00.300Z,99919.72
2022-12-08T10:18:32.983Z,99921.81
2022-12-08T10:21:18.881Z,99912.34
2022-12-08T10:23:52.898Z,99915.34
2022-12-08T10:26:25.188Z,99914.06
2022-12-08T10:29:01.148Z,99915.88
2022-12-08T10:31:32.712Z,99908.22
2022-12-08T10:34:04.438Z,99912.69
2022-12-08T10:36:48.922Z,99914.19
2022-12-08T10:39:36.124Z,99906.19
2022-12-08T10:42:11.647Z,99901.81
2022-12-08T10:44:55.827Z,99908.72
2022-12-08T10:47:28.232Z,99908.66
2022-12-08T10:50:15.098Z,99902.75
2022-12-08T10:52:44.601Z,99899.59
2022-12-08T10:55:19.450Z,99898.88
2022-12-08T10:57:51.718Z,99895.94
2022-12-08T11:00:23.923Z,99892.69
2022-12-08T11:02:56.746Z,99900.00
2022-12-08T11:05:30.569Z,99893.78
2022-12-08T11:08:00.426Z,99886.41
2022-12-08T11:10:37.087Z,99884.72
2022-12-08T11:13:19.981Z,99888.91
2022-12-08T11:15:49.734Z,99886.22
2022-12-08T11:18:28.734Z,99886.41
2022-12-08T11:21:09.673Z,99888.38
2022-12-08T11:23:40.412Z,99892.09
2022-12-08T11:26:19.285Z,99890.91
2022-12-08T11:28:51.387Z,99901.00
2022-12-08T11:31:30.382Z,99890.72
2022-12-08T11:34:00.005Z,99897.44
2022-12-08T11:36:34.214Z,99896.41
2022-12-08T11:39:07.215Z,99889.38
2022-12-08T11:41:41.585Z,99894.94
2022-12-08T11:44:28.501Z,99892.94
2022-12-08T11:47:00.940Z,99891.81
2022-12-08T11:49:37.020Z,99889.41
2022-12-08T11:52:15.661Z,99895.78
2022-12-08T11:54:50.671Z,99897.16
2022-12-08T11:57:20.947Z,99894.47
2022-12-08T11:59:54.795Z,99892.28
2022-12-08T12:02:27.371Z,99895.44
2022-12-08T12:05:02.133Z,99898.47
2022-12-08T12:07:49.082Z,99893.31
2022-12-08T12:10:39.697Z,99887.09
2022-12-08T12:13:22.009Z,99896.50
2022-12-08T12:16:38.593Z,99885.59
2022-12-08T12:19:14.913Z,99881.25
2022-12-08T12:21:47.431Z,99887.91
2022-12-08T12:24:26.068Z,99875.00
2022-12-08T12:27:02.318Z,99881.00
2022-12-08T12:29:34.929Z,99887.56
2022-12-08T12:32:11.446Z,99888.72
2022-12-08T12:34:51.060Z,99888.19
2022-12-08T12:37:24.376Z,99892.34
2022-12-08T12:40:00.963Z,99887.81
2022-12-08T12:42:44.769Z,99894.13
2022-12-08T12:45:32.490Z,99886.81
2022-12-08T12:48:27.341Z,99890.47
2022-12-08T12:50:57.895Z,99883.34
2022-12-08T12:53:52.938Z,99884.34
2022-12-08T12:56:50.919Z,99889.03
2022-12-08T13:00:08.629Z,99887.16
2022-12-08T13:02:41.628Z,99890.72
2022-12-08T13:05:19.357Z,99893.41
2022-12-08T13:07:55.366Z,99892.41
2022-12-08T13:10:28.733Z,99896.06
2022-12-08T13:13:17.755Z,99900.69
2022-12-08T13:15:53.436Z,99890.84
2022-12-08T13:18:26.579Z,99892.03
2022-12-08T13:21:08.044Z,99886.28
2022-12-08T13:23:49.859Z,99882.28
2022-12-08T13:26:22.725Z,99888.50
2022-12-08T13:29:17.732Z,99886.81
2022-12-08T13:31:51.261Z,99893.66
2022-12-08T13:34:32.855Z,99886.81
2022-12-08T13:37:20.810Z,99893.44
2022-12-08T13:39:54.775Z,99896.66
2022-12-08T13:42:32.168Z,99893.66
2022-12-08T13:57:06.865Z,99901.34
2022-12-08T13:59:46.578Z,99907.59
2022-12-08T14:02:20.699Z,99907.06
2022-12-08T14:07:42.773Z,99903.28
2022-12-08T14:10:20.773Z,99908.41
2022-12-08T14:12:57.626Z,99904.38
2022-12-08T14:15:31.365Z,99911.06
2022-12-08T14:18:05.586Z,99915.19
2022-12-08T14:20:57.883Z,99919.34
2022-12-08T14:23:26.402Z,99923.03
2022-12-08T14:25:59.308Z,99921.56
2022-12-08T14:28:28.852Z,99922.13
2022-12-08T14:30:58.779Z,99924.69
2022-12-08T14:33:29.089Z,99914.88
2022-12-08T14:35:59.421Z,99923.53
2022-12-08T14:38:29.392Z,99919.72
2022-12-08T14:41:09.544Z,99916.56
2022-12-08T14:43:41.057Z,99920.94
2022-12-08T14:46:23.322Z,99917.59
2022-12-08T14:48:53.678Z,99916.28
2022-12-08T14:51:30.245Z,99916.25
2022-12-08T14:54:02.202Z,99926.94
2022-12-08T14:56:39.521Z,99924.56
2022-12-08T14:59:15.312Z,99921.59
2022-12-08T15:01:45.794Z,99928.72
2022-12-08T15:04:21.496Z,99928.28
2022-12-08T15:06:55.680Z,99935.78
2022-12-08T15:12:08.942Z,99926.78
2022-12-08T15:14:39.984Z,99929.47
2022-12-08T15:20:04.484Z,99921.69
2022-12-08T15:22:34.506Z,99931.19
2022-12-08T15:25:04.688Z,99929.03
2022-12-08T15:27:49.579Z,99928.19
2022-12-08T15:30:20.942Z,99931.84
2022-12-08T15:32:52.380Z,99942.06
2022-12-08T15:35:22.553Z,99941.56
2022-12-08T15:37:52.065Z,99931.66
2022-12-08T15:40:27.040Z,99940.81
2022-12-08T15:42:59.156Z,99935.44
2022-12-08T15:45:33.655Z,99942.34
2022-12-08T15:48:03.632Z,99946.84
2022-12-08T15:50:33.170Z,99948.34
2022-12-08T15:53:02.743Z,99949.88
2022-12-08T15:55:38.490Z,99959.25
2022-12-08T15:58:53.157Z,99949.53
2022-12-08T16:01:16.356Z,99952.44
2022-12-08T16:09:32.984Z,99955.22
2022-12-08T16:12:15.263Z,99958.28
2022-12-08T16:15:47.223Z,99956.31
2022-12-08T16:17:38.258Z,99964.63
2022-12-08T16:20:09.825Z,99961.78
2022-12-08T16:23:07.602Z,99966.44
2022-12-08T16:25:46.028Z,99969.97
2022-12-08T16:28:52.166Z,99966.28
2022-12-08T16:31:17.742Z,99970.22
2022-12-08T16:33:50.960Z,99967.75
2022-12-08T16:36:20.506Z,99967.44
2022-12-08T16:38:50.005Z,99970.34
2022-12-08T16:41:33.288Z,99977.69
2022-12-08T16:44:05.191Z,99974.00
2022-12-08T16:46:37.530Z,99977.53
2022-12-08T16:49:07.324Z,99978.81
2022-12-08T16:51:36.847Z,99980.41
2022-12-08T16:54:06.458Z,99974.03
2022-12-08T16:56:35.958Z,99983.56
2022-12-08T16:59:05.463Z,99984.22
2022-12-08T17:01:37.606Z,99995.66
2022-12-08T17:04:30.953Z,99989.94
2022-12-08T17:06:57.823Z,99986.66
2022-12-08T17:09:28.573Z,99991.94
2022-12-08T17:12:03.479Z,99990.09
2022-12-08T17:14:35.469Z,99991.94
2022-12-08T17:17:07.632Z,99986.28
2022-12-08T17:19:37.259Z,99989.25
2022-12-08T17:22:07.158Z,99988.72
2022-12-08T17:24:36.690Z,99986.66
2022-12-08T17:27:06.826Z,99989.00
2022-12-08T17:29:37.214Z,99978.56
2022-12-08T17:32:09.801Z,99982.50
2022-12-08T17:34:39.327Z,99983.34
2022-12-08T17:37:08.906Z,99984.88
2022-12-08T17:39:39.360Z,99992.78
2022-12-08T17:42:09.855Z,99993.22
2022-12-08T17:44:39.545Z,99998.41
2022-12-08T17:47:11.775Z,99996.44
2022-12-08T17:49:41.520Z,99993.03
2022-12-08T17:52:11.284Z,100004.47
2022-12-08T17:54:41.278Z,100008.81
2022-12-08T17:57:10.801Z,100000.22
2022-12-08T17:59:40.575Z,100004.22
2022-12-08T18:02:15.164Z,100004.03
2022-12-08T18:04:44.768Z,100001.13
2022-12-08T18:07:14.349Z,99995.81
2022-12-08T18:09:43.929Z,99995.56
2022-12-08T18:12:13.465Z,99993.59
2022-12-08T18:14:43.076Z,100002.88
2022-12-08T18:17:15.508Z,100001.91
2022-12-08T18:19:45.036Z,100001.66
2022-12-08T18:22:16.017Z,99996.34
2022-12-08T18:24:47.630Z,99997.88
2022-12-08T18:27:17.170Z,100001.97
2022-12-08T18:29:46.801Z,100001.69
2022-12-08T18:32:22.700Z,99997.34
2022-12-08T18:34:52.496Z,100000.16
2022-12-08T18:37:22.055Z,99999.47
2022-12-08T18:39:51.716Z,99998.63
2022-12-08T18:42:28.310Z,100001.44
2022-12-08T18:45:02.787Z,99996.69
2022-12-08T18:47:36.228Z,99996.41
2022-12-08T18:50:06.611Z,99995.56
2022-12-08T18:52:36.952Z,99995.84
2022-12-08T18:55:07.777Z,100006.22
2022-12-08T18:57:39.027Z,100000.22
2022-12-08T19:00:12.227Z,99998.53
2022-12-08T19:02:45.267Z,100002.59
2022-12-08T19:05:16.054Z,100008.03
2022-12-08T19:07:45.967Z,100009.81
2022-12-08T19:10:16.143Z,100004.38
2022-12-08T19:12:45.671Z,100017.69
2022-12-08T19:15:15.426Z,100019.78
2022-12-08T19:17:47.570Z,100018.94
2022-12-08T19:20:17.422Z,100017.69
2022-12-08T19:22:46.991Z,100020.19
2022-12-08T19:25:16.465Z,100011.22
2022-12-08T19:27:46.219Z,100023.88
2022-12-08T19:30:17.194Z,100025.81
2022-12-08T19:32:49.336Z,100030.47
2022-12-08T19:35:19.083Z,100026.97
2022-12-08T19:37:48.592Z,100018.88
2022-12-08T19:40:30.853Z,100014.97
2022-12-08T19:43:12.967Z,100019.56
2022-12-08T19:45:42.507Z,100014.41
2022-12-08T19:48:14.711Z,100020.41
2022-12-08T19:50:44.191Z,100023.22
2022-12-08T19:53:15.557Z,100021.13
2022-12-08T19:55:46.753Z,100028.13
2022-12-08T19:58:16.633Z,100030.78
2022-12-08T20:00:46.681Z,100024.91
2022-12-08T20:03:21.404Z,100031.63
2022-12-08T20:05:53.290Z,100025.31
2022-12-08T20:08:22.962Z,100020.41
2022-12-08T20:10:56.121Z,100026.88
2022-12-08T20:13:38.149Z,100028.41
2022-12-08T20:16:08.594Z,100031.50
2022-12-08T20:18:42.082Z,100044.09
2022-12-08T20:21:12.699Z,100028.69
2022-12-08T20:23:42.228Z,100030.78
2022-12-08T20:26:17.439Z,100028.56
2022-12-08T20:28:47.123Z,100028.69
2022-12-08T20:31:24.883Z,100031.63
2022-12-08T20:33:57.323Z,100028.97
2022-12-08T20:36:26.942Z,100030.09
2022-12-08T20:38:57.430Z,100025.91
2022-12-08T20:41:27.356Z,100022.25
2022-12-08T20:43:56.935Z,100035.41
2022-12-08T20:46:26.522Z,100031.78
2022-12-08T20:49:01.219Z,100028.81
2022-12-08T20:51:32.201Z,100032.31
2022-12-08T20:54:02.469Z,100036.50
2022-12-08T20:56:32.201Z,100057.94
2022-12-08T20:59:02.413Z,100049.13
2022-12-08T21:01:32.139Z,100051.78
2022-12-08T21:04:04.623Z,100058.91
2022-12-08T21:06:34.445Z,100057.22
2022-12-08T21:09:04.248Z,100056.13
2022-12-08T21:11:34.124Z,100052.59
2022-12-08T21:14:03.901Z,100051.06
2022-12-08T21:16:33.966Z,100048.69
2022-12-08T21:19:06.445Z,100054.13
2022-12-08T21:21:36.490Z,100053.56
2022-12-08T21:24:06.883Z,100051.16
2022-12-08T21:26:36.587Z,100052.72
2022-12-08T21:29:06.937Z,100056.06
2022-12-08T21:31:36.713Z,100062.50
2022-12-08T21:34:08.909Z,100062.03
2022-12-08T21:36:38.509Z,100053.25
2022-12-08T21:39:12.828Z,100061.06
2022-12-08T21:41:55.081Z,100059.66
2022-12-08T21:44:24.665Z,100057.69
2022-12-08T21:46:55.095Z,100057.69
2022-12-08T21:49:27.543Z,100059.66
2022-12-08T21:51:57.583Z,100056.72
2022-12-08T21:54:27.448Z,100056.00
2022-12-08T21:56:57.446Z,100062.69
2022-12-08T21:59:27.227Z,100067.75
2022-12-08T22:01:56.921Z,100062.69
2022-12-08T22:04:29.321Z,100068.97
2022-12-08T22:06:59.363Z,100068.28
2022-12-08T22:09:29.039Z,100062.69
2022-12-08T22:11:58.728Z,100064.47
2022-12-08T22:14:28.366Z,100057.50
2022-12-08T22:16:57.999Z,100054.84
2022-12-08T22:19:30.268Z,100060.69
2022-12-08T22:21:59.952Z,100060.09
2022-12-08T22:24:29.745Z,100058.03
2022-12-08T22:26:59.576Z,100057.44
2022-12-08T22:29:29.311Z,100051.28
2022-12-08T22:31:59.091Z,100050.69
2022-12-08T22:34:31.388Z,100049.75
2022-12-08T22:37:01.098Z,100052.66
2022-12-08T22:39:30.775Z,100054.31
2022-12-08T22:42:00.414Z,100046.63
2022-12-08T22:44:30.326Z,100047.34
2022-12-08T22:47:00.385Z,100057.41
2022-12-08T22:49:32.912Z,100052.78
2022-12-08T22:52:02.576Z,100049.81
2022-12-08T22:54:32.515Z,100052.72
2022-12-08T22:57:02.282Z,100050.75
2022-12-08T22:59:33.367Z,100047.94
2022-12-08T23:02:03.132Z,100053.25
2022-12-08T23:04:35.688Z,100051.88
2022-12-08T23:07:06.049Z,100055.13
2022-12-08T23:09:35.550Z,100061.22
2022-12-08T23:12:05.091Z,100065.69
2022-12-08T23:14:34.566Z,100057.97
2022-12-08T23:17:06.303Z,100049.91
2022-12-08T23:19:41.550Z,100051.41
2022-12-08T23:22:11.092Z,100056.59
2022-12-08T23:24:40.568Z,100057.16
2022-12-08T23:27:10.285Z,100055.03
2022-12-08T23:29:40.402Z,100056.38
2022-12-08T23:32:09.958Z,100052.75
2022-12-08T23:34:42.226Z,100053.66
2022-12-08T23:37:11.768Z,100060.56
2022-12-08T23:39:41.275Z,100054.41
2022-12-08T23:42:11.106Z,100062.72
2022-12-08T23:44:40.739Z,100051.94
2022-12-08T23:47:10.403Z,100055.44
2022-12-08T23:49:42.601Z,100049.41
2022-12-08T23:52:14.835Z,100049.41
2022-12-08T23:54:44.921Z,100045.78
2022-12-08T23:57:14.744Z,100045.78
2022-12-08T23:59:44.269Z,100046.44
